createdAt,value
2016-05-10T00:01:06.502Z,59.12
2016-05-10T00:01:52.926Z,59.22
2016-05-10T00:02:52.351Z,58.83
2016-05-10T00:04:52.325Z,59.41
2016-05-10T00:05:52.327Z,59.69
2016-05-10T00:06:52.315Z,59.69
2016-05-10T00:07:52.318Z,59.69
2016-05-10T00:08:52.320Z,60.07
2016-05-10T00:09:52.307Z,60.07
2016-05-10T00:10:52.326Z,60.27
2016-05-10T00:11:52.313Z,60.27
2016-05-10T00:12:52.342Z,59.98
2016-05-10T00:13:52.370Z,59.98
2016-05-10T00:14:52.977Z,60.07
2016-05-10T00:15:52.287Z,60.46
2016-05-10T00:16:52.487Z,61.03
2016-05-10T00:17:52.513Z,61.6
2016-05-10T00:18:52.358Z,61.51
2016-05-10T00:19:52.531Z,61.32
2016-05-10T00:20:52.549Z,61.41
2016-05-10T00:21:52.394Z,61.13
2016-05-10T00:22:52.562Z,61.69
2016-05-10T00:23:52.570Z,61.6
2016-05-10T00:24:52.563Z,61.6
2016-05-10T00:25:52.586Z,61.79
2016-05-10T00:26:52.578Z,61.98
2016-05-10T00:27:52.568Z,62.65
2016-05-10T00:28:52.573Z,62.62
2016-05-10T00:29:52.594Z,62.55
2016-05-10T00:30:52.567Z,62.52
2016-05-10T00:31:52.603Z,62.55
2016-05-10T00:32:52.418Z,62.43
2016-05-10T00:33:52.563Z,62.15
2016-05-10T00:34:52.566Z,62.81
2016-05-10T00:35:52.570Z,62.91
2016-05-10T00:36:52.573Z,62.52
2016-05-10T00:37:52.560Z,62.81
2016-05-10T00:38:52.408Z,62.91
2016-05-10T00:39:52.551Z,63
2016-05-10T00:40:52.554Z,63
2016-05-10T00:41:52.557Z,62.91
2016-05-10T00:42:52.544Z,63.1
2016-05-10T00:43:52.547Z,63.1
2016-05-10T00:44:52.737Z,63.67
2016-05-10T00:45:52.538Z,63.35
2016-05-10T00:46:52.540Z,63.76
2016-05-10T00:47:52.543Z,63.64
2016-05-10T00:48:52.530Z,63.54
2016-05-10T00:49:52.532Z,64.4
2016-05-10T00:50:52.535Z,64.4
2016-05-10T00:51:52.521Z,64.02
2016-05-10T00:52:52.524Z,63.92
2016-05-10T00:53:52.527Z,64.21
2016-05-10T00:54:52.515Z,64.5
2016-05-10T00:55:52.518Z,64.5
2016-05-10T00:56:52.504Z,64.78
2016-05-10T00:57:52.351Z,65.07
2016-05-10T00:58:52.509Z,64.97
2016-05-10T00:59:52.512Z,64.88
2016-05-10T01:00:52.515Z,64.88
2016-05-10T01:01:52.501Z,64.97
2016-05-10T01:02:52.504Z,65.17
2016-05-10T01:03:54.492Z,65.74
2016-05-10T01:04:52.870Z,65.36
2016-05-10T01:05:53.200Z,65.55
2016-05-10T01:06:53.094Z,65.45
2016-05-10T01:07:52.487Z,65.55
2016-05-10T01:08:53.052Z,65.74
2016-05-10T01:09:53.445Z,65.45
2016-05-10T01:10:52.620Z,65.64
2016-05-10T01:11:52.825Z,65.64
2016-05-10T01:12:53.797Z,65.83
2016-05-10T01:13:52.472Z,65.74
2016-05-10T01:14:53.412Z,65.74
2016-05-10T01:15:52.461Z,66.6
2016-05-10T01:16:52.511Z,66.5
2016-05-10T01:17:52.452Z,66.69
2016-05-10T01:18:52.454Z,66.5
2016-05-10T01:19:53.097Z,66.5
2016-05-10T01:20:53.350Z,66.5
2016-05-10T01:21:52.587Z,66.5
2016-05-10T01:22:52.433Z,67.04
2016-05-10T01:23:52.436Z,66.78
2016-05-10T01:24:52.439Z,67.07
2016-05-10T01:25:52.535Z,66.98
2016-05-10T01:26:52.429Z,66.98
2016-05-10T01:27:52.431Z,66.98
2016-05-10T01:28:52.418Z,67.33
2016-05-10T01:29:52.609Z,67.65
2016-05-10T01:30:52.408Z,67.52
2016-05-10T01:31:52.411Z,67.27
2016-05-10T01:32:52.414Z,67.33
2016-05-10T01:33:52.401Z,67.23
2016-05-10T01:34:52.403Z,67.52
2016-05-10T01:35:52.250Z,67.23
2016-05-10T01:36:52.253Z,67.42
2016-05-10T01:37:52.395Z,67.61
2016-05-10T01:38:52.398Z,67.33
2016-05-10T01:39:52.386Z,67.71
2016-05-10T01:40:52.373Z,67.99
2016-05-10T01:41:52.391Z,68.09
2016-05-10T01:42:52.394Z,67.71
2016-05-10T01:43:52.208Z,67.9
2016-05-10T01:44:52.821Z,67.99
2016-05-10T01:45:52.214Z,67.71
2016-05-10T01:46:52.373Z,67.52
2016-05-10T01:47:52.361Z,68.09
2016-05-10T01:48:52.363Z,67.9
2016-05-10T01:49:52.193Z,67.99
2016-05-10T01:50:52.352Z,68.09
2016-05-10T01:51:52.355Z,68.28
2016-05-10T01:52:52.343Z,68.76
2016-05-10T01:53:52.189Z,68.76
2016-05-10T01:54:52.348Z,69.04
2016-05-10T01:55:52.335Z,68.85
2016-05-10T01:56:52.353Z,69.04
2016-05-10T01:57:52.325Z,69.33
2016-05-10T01:58:52.327Z,69.62
2016-05-10T01:59:52.549Z,70.28
2016-05-10T02:00:52.317Z,70
2016-05-10T02:01:52.320Z,70.19
2016-05-10T02:02:52.306Z,70
2016-05-10T02:03:52.309Z,70.19
2016-05-10T02:04:52.312Z,70.19
2016-05-10T02:05:52.299Z,71.04
2016-05-10T02:06:52.302Z,70.86
2016-05-10T02:07:52.304Z,71.23
2016-05-10T02:08:52.291Z,71.52
2016-05-10T02:09:52.138Z,71.04
2016-05-10T02:10:52.125Z,71.43
2016-05-10T02:11:52.284Z,71.43
2016-05-10T02:12:52.272Z,71.33
2016-05-10T02:13:52.274Z,71.33
2016-05-10T02:14:52.777Z,71.72
2016-05-10T02:15:52.279Z,72.09
2016-05-10T02:16:52.266Z,71.43
2016-05-10T02:17:52.097Z,72
2016-05-10T02:18:52.256Z,72.09
2016-05-10T02:19:52.258Z,72
2016-05-10T02:20:52.246Z,71.72
2016-05-10T02:21:53.561Z,71.91
2016-05-10T02:22:52.594Z,71.91
2016-05-10T02:23:53.316Z,72.09
2016-05-10T02:24:53.507Z,72.19
2016-05-10T02:25:52.510Z,72.25
2016-05-10T02:26:52.230Z,72.44
2016-05-10T02:27:52.218Z,72.53
2016-05-10T02:28:53.330Z,72.82
2016-05-10T02:29:52.582Z,72.72
2016-05-10T02:30:52.616Z,72.92
2016-05-10T02:31:53.165Z,72.72
2016-05-10T02:32:52.450Z,72.82
2016-05-10T02:33:52.203Z,72.53
2016-05-10T02:34:52.206Z,73.21
2016-05-10T02:35:52.349Z,73.39
2016-05-10T02:36:52.195Z,73.01
2016-05-10T02:37:52.541Z,73.3
2016-05-10T02:38:52.341Z,73.3
2016-05-10T02:39:52.250Z,73.11
2016-05-10T02:40:53.081Z,73.49
2016-05-10T02:41:52.178Z,73.49
2016-05-10T02:43:52.558Z,73.58
2016-05-10T02:44:52.013Z,73.77
2016-05-10T02:45:52.157Z,73.77
2016-05-10T02:46:52.159Z,72.82
2016-05-10T02:47:52.146Z,73.68
2016-05-10T02:48:51.994Z,73.49
2016-05-10T02:49:52.136Z,73.39
2016-05-10T02:50:52.138Z,73.3
2016-05-10T02:51:52.127Z,73.87
2016-05-10T02:52:51.972Z,73.77
2016-05-10T02:53:52.132Z,74.44
2016-05-10T02:54:52.119Z,73.96
2016-05-10T02:55:52.121Z,73.77
2016-05-10T02:56:52.124Z,75.01
2016-05-10T02:57:52.110Z,74.63
2016-05-10T02:58:52.113Z,74.82
2016-05-10T02:59:52.132Z,74.35
2016-05-10T03:00:51.946Z,74.35
2016-05-10T03:01:52.091Z,74.63
2016-05-10T03:02:52.093Z,74.82
2016-05-10T03:03:52.096Z,75.01
2016-05-10T03:04:52.082Z,74.82
2016-05-10T03:05:52.085Z,74.92
2016-05-10T03:06:52.073Z,75.01
2016-05-10T03:07:51.919Z,74.73
2016-05-10T03:08:52.078Z,75.01
2016-05-10T03:09:52.065Z,75.01
2016-05-10T03:10:52.067Z,75.3
2016-05-10T03:11:52.055Z,75.78
2016-05-10T03:12:52.058Z,75.59
2016-05-10T03:13:52.061Z,75.59
2016-05-10T03:14:52.063Z,75.78
2016-05-10T03:15:51.894Z,75.59
2016-05-10T03:16:52.036Z,76.06
2016-05-10T03:17:52.040Z,76.25
2016-05-10T03:18:52.027Z,76.06
2016-05-10T03:19:52.029Z,75.87
2016-05-10T03:20:52.033Z,76.06
2016-05-10T03:21:52.019Z,76.06
2016-05-10T03:22:52.021Z,75.96
2016-05-10T03:23:52.008Z,75.96
2016-05-10T03:24:51.855Z,76.64
2016-05-10T03:25:51.999Z,76.35
2016-05-10T03:26:52.002Z,76.54
2016-05-10T03:27:51.988Z,76.44
2016-05-10T03:28:51.991Z,76.25
2016-05-10T03:29:51.838Z,76.44
2016-05-10T03:30:51.996Z,76.64
2016-05-10T03:31:51.984Z,76.35
2016-05-10T03:32:51.987Z,76.44
2016-05-10T03:33:51.973Z,76.44
2016-05-10T03:34:51.976Z,76.54
2016-05-10T03:35:51.963Z,76.44
2016-05-10T03:36:51.809Z,76.44
2016-05-10T03:37:51.969Z,76.64
2016-05-10T03:38:51.955Z,76.44
2016-05-10T03:39:51.801Z,76.25
2016-05-10T03:40:52.711Z,76.73
2016-05-10T03:41:52.714Z,77.01
2016-05-10T03:42:53.514Z,76.73
2016-05-10T03:43:52.641Z,77.2
2016-05-10T03:44:51.940Z,77.2
2016-05-10T03:45:51.772Z,77.3
2016-05-10T03:46:51.930Z,77.11
2016-05-10T03:47:52.667Z,77.49
2016-05-10T03:48:52.858Z,77.25
2016-05-10T03:49:52.454Z,76.57
2016-05-10T03:51:06.081Z,76.86
2016-05-10T03:51:53.099Z,76.48
2016-05-10T03:52:51.899Z,76.48
2016-05-10T03:53:51.746Z,76.57
2016-05-10T03:54:52.092Z,76.01
2016-05-10T03:55:51.892Z,76.01
2016-05-10T03:56:52.036Z,75.72
2016-05-10T03:57:51.725Z,75.34
2016-05-10T03:58:52.634Z,75.24
2016-05-10T03:59:52.480Z,75.34
2016-05-10T04:00:52.280Z,74.71
2016-05-10T04:01:52.018Z,74.99
2016-05-10T04:02:51.863Z,74.42
2016-05-10T04:03:51.866Z,74.23
2016-05-10T04:04:51.962Z,73.79
2016-05-10T04:05:51.856Z,73.5
2016-05-10T04:06:51.703Z,73.5
2016-05-10T04:07:51.862Z,72.78
2016-05-10T04:08:51.849Z,72.3
2016-05-10T04:09:51.851Z,71.44
2016-05-10T04:10:51.870Z,70.81
2016-05-10T04:11:51.842Z,70.33
2016-05-10T04:12:51.844Z,69.7
2016-05-10T04:13:51.847Z,68.84
2016-05-10T04:14:53.068Z,67.97
2016-05-10T04:15:51.836Z,67.69
2016-05-10T04:16:51.839Z,67.14
2016-05-10T04:17:51.842Z,66.76
2016-05-10T04:18:51.828Z,66.67
2016-05-10T04:19:51.675Z,65.84
2016-05-10T04:20:51.833Z,65.26
2016-05-10T04:21:51.836Z,64.4
2016-05-10T04:22:51.824Z,64.15
2016-05-10T04:23:51.670Z,63.67
2016-05-10T04:24:51.830Z,62.9
2016-05-10T04:25:51.833Z,62.07
2016-05-10T04:26:51.835Z,61.69
2016-05-10T04:27:51.680Z,60.86
2016-05-10T04:28:51.840Z,59.9
2016-05-10T04:29:51.686Z,59.36
2016-05-10T04:30:51.830Z,59.16
2016-05-10T04:31:51.833Z,57.82
2016-05-10T04:32:51.835Z,56.98
2016-05-10T04:33:51.837Z,57.08
2016-05-10T04:34:51.841Z,56.51
2016-05-10T04:35:51.843Z,56.6
2016-05-10T04:36:51.846Z,55.93
2016-05-10T04:37:51.849Z,55.29
2016-05-10T04:38:51.695Z,54.23
2016-05-10T04:39:51.854Z,53.87
2016-05-10T04:40:51.856Z,53.49
2016-05-10T04:41:51.859Z,52.94
2016-05-10T04:42:51.706Z,52.36
2016-05-10T04:43:51.709Z,52.26
2016-05-10T04:44:51.868Z,52
2016-05-10T04:45:51.886Z,51.23
2016-05-10T04:46:51.872Z,50.78
2016-05-10T04:47:51.875Z,49.72
2016-05-10T04:48:51.894Z,49.46
2016-05-10T04:49:51.881Z,49.36
2016-05-10T04:50:51.884Z,48.69
2016-05-10T04:51:51.902Z,47.94
2016-05-10T04:52:51.904Z,47.77
2016-05-10T04:53:51.907Z,46.42
2016-05-10T04:54:51.910Z,45.65
2016-05-10T04:55:51.756Z,45.39
2016-05-10T04:56:51.915Z,44.9
2016-05-10T04:57:51.934Z,44.42
2016-05-10T04:58:51.952Z,43.87
2016-05-10T04:59:51.783Z,43.48
2016-05-10T05:00:52.161Z,42.52
2016-05-10T05:01:51.804Z,42.15
2016-05-10T05:02:52.744Z,42.05
2016-05-10T05:03:51.965Z,41.57
2016-05-10T05:04:52.390Z,41.6
2016-05-10T05:05:51.987Z,41.2
2016-05-10T05:06:52.098Z,40.72
2016-05-10T05:07:51.992Z,40.24
2016-05-10T05:09:53.247Z,39.37
2016-05-10T05:10:52.016Z,39.57
2016-05-10T05:11:52.034Z,38.7
2016-05-10T05:12:52.973Z,38.62
2016-05-10T05:13:52.055Z,38.81
2016-05-10T05:14:52.057Z,38.43
2016-05-10T05:15:52.075Z,38.23
2016-05-10T05:16:52.970Z,37.67
2016-05-10T05:17:52.081Z,37.48
2016-05-10T05:18:52.084Z,37.67
2016-05-10T05:19:52.305Z,37.48
2016-05-10T05:20:52.105Z,37.1
2016-05-10T05:21:52.123Z,37.29
2016-05-10T05:22:52.172Z,36.9
2016-05-10T05:23:52.128Z,36.72
2016-05-10T05:24:52.147Z,36.72
2016-05-10T05:25:52.150Z,36.34
2016-05-10T05:26:52.011Z,36.07
2016-05-10T05:27:52.186Z,35.78
2016-05-10T05:28:52.188Z,35.02
2016-05-10T05:29:52.457Z,34.94
2016-05-10T05:30:52.210Z,34.55
2016-05-10T05:31:52.212Z,34.09
2016-05-10T05:32:52.216Z,33.51
2016-05-10T05:33:52.234Z,33.51
2016-05-10T05:34:52.252Z,33.6
2016-05-10T05:35:52.270Z,33.31
2016-05-10T05:36:52.288Z,33.22
2016-05-10T05:37:52.276Z,33.31
2016-05-10T05:38:52.293Z,33.12
2016-05-10T05:39:52.296Z,32.73
2016-05-10T05:40:52.299Z,32.56
2016-05-10T05:41:52.318Z,31.97
2016-05-10T05:42:52.336Z,31.6
2016-05-10T05:43:52.182Z,31.59
2016-05-10T05:44:52.357Z,31.31
2016-05-10T05:45:52.359Z,31.6
2016-05-10T05:46:52.222Z,31.12
2016-05-10T05:47:52.381Z,31.31
2016-05-10T05:48:52.242Z,30.35
2016-05-10T05:49:52.418Z,29.98
2016-05-10T05:50:52.436Z,29.88
2016-05-10T05:51:52.438Z,29.3
2016-05-10T05:52:52.441Z,29.3
2016-05-10T05:53:52.459Z,29.4
2016-05-10T05:54:52.493Z,28.63
2016-05-10T05:55:52.324Z,28.23
2016-05-10T05:56:52.499Z,28.53
2016-05-10T05:57:52.501Z,28.64
2016-05-10T05:58:52.519Z,27.86
2016-05-10T05:59:52.788Z,28.05
2016-05-10T06:00:52.385Z,27.97
2016-05-10T06:01:52.402Z,27.21
2016-05-10T06:02:52.749Z,26.53
2016-05-10T06:03:52.580Z,26.62
2016-05-10T06:04:52.599Z,26.62
2016-05-10T06:05:52.601Z,26.61
2016-05-10T06:06:52.635Z,26.42
2016-05-10T06:07:52.638Z,26.42
2016-05-10T06:08:52.657Z,26.51
2016-05-10T06:09:52.658Z,26.22
2016-05-10T06:10:52.676Z,25.84
2016-05-10T06:11:52.695Z,26.42
2016-05-10T06:12:52.713Z,26.32
2016-05-10T06:13:52.716Z,26.22
2016-05-10T06:14:53.032Z,26.12
2016-05-10T06:15:52.612Z,25.64
2016-05-10T06:16:52.770Z,26.51
2016-05-10T06:17:54.180Z,25.93
2016-05-10T06:19:53.686Z,26.03
2016-05-10T06:20:52.814Z,25.92
2016-05-10T06:21:52.817Z,26.01
2016-05-10T06:22:52.834Z,26.21
2016-05-10T06:23:52.853Z,25.84
2016-05-10T06:26:07.061Z,24.88
2016-05-10T06:26:53.688Z,25.16
2016-05-10T06:28:52.928Z,24.5
2016-05-10T06:29:53.150Z,24.61
2016-05-10T06:30:52.949Z,23.73
2016-05-10T06:31:52.969Z,23.94
2016-05-10T06:32:53.829Z,24.12
2016-05-10T06:33:53.410Z,23.84
2016-05-10T06:34:53.007Z,23.55
2016-05-10T06:35:53.588Z,23.17
2016-05-10T06:36:53.387Z,23.27
2016-05-10T06:37:53.063Z,22.78
2016-05-10T06:38:53.580Z,22.79
2016-05-10T06:39:53.348Z,22.79
2016-05-10T06:40:53.101Z,22.02
2016-05-10T06:41:53.120Z,22.22
2016-05-10T06:42:53.138Z,22.02
2016-05-10T06:43:53.157Z,21.83
2016-05-10T06:44:53.206Z,21.05
2016-05-10T06:45:53.193Z,20.86
2016-05-10T06:46:53.212Z,21.05
2016-05-10T06:47:53.214Z,21.15
2016-05-10T06:48:53.232Z,20.48
2016-05-10T06:49:53.251Z,20.38
2016-05-10T06:50:53.269Z,20.96
2016-05-10T06:51:53.287Z,20.67
2016-05-10T06:52:53.306Z,20.57
2016-05-10T06:53:53.324Z,20.57
2016-05-10T06:54:53.342Z,20.57
2016-05-10T06:55:53.360Z,20.56
2016-05-10T06:56:53.378Z,20.37
2016-05-10T06:57:53.397Z,20.17
2016-05-10T06:58:53.416Z,19.29
2016-05-10T06:59:54.293Z,19.88
2016-05-10T07:00:53.452Z,20.55
2016-05-10T07:01:53.469Z,20.54
2016-05-10T07:02:53.473Z,20.64
2016-05-10T07:03:53.491Z,21.02
2016-05-10T07:04:53.510Z,21.02
2016-05-10T07:05:53.527Z,21.6
2016-05-10T07:06:53.546Z,21.8
2016-05-10T07:07:53.565Z,21.02
2016-05-10T07:08:53.582Z,20.92
2016-05-10T07:09:53.602Z,22.08
2016-05-10T07:10:53.619Z,22.08
2016-05-10T07:11:53.637Z,22.27
2016-05-10T07:12:53.656Z,21.98
2016-05-10T07:13:53.659Z,22.17
2016-05-10T07:14:53.974Z,21.8
2016-05-10T07:15:53.696Z,21.6
2016-05-10T07:16:53.714Z,22.19
2016-05-10T07:17:53.732Z,21.81
2016-05-10T07:18:53.750Z,21.32
2016-05-10T07:19:53.613Z,21.33
2016-05-10T07:20:53.787Z,21.25
2016-05-10T07:21:53.805Z,20.56
2016-05-10T07:22:53.823Z,19.6
2016-05-10T07:23:53.686Z,19.98
2016-05-10T07:24:53.861Z,19.96
2016-05-10T07:25:53.879Z,20.54
2016-05-10T07:26:53.881Z,20.54
2016-05-10T07:27:53.915Z,20.45
2016-05-10T07:28:53.917Z,21.03
2016-05-10T07:29:53.795Z,21.04
2016-05-10T07:30:53.969Z,21.25
2016-05-10T07:31:53.988Z,21.05
2016-05-10T07:32:54.007Z,20.48
2016-05-10T07:33:54.010Z,19.7
2016-05-10T07:34:54.044Z,19.6
2016-05-10T07:35:54.046Z,19.4
2016-05-10T07:36:54.924Z,19.5
2016-05-10T07:37:54.457Z,19.31
2016-05-10T07:38:55.523Z,19.21
2016-05-10T07:39:54.119Z,19.5
2016-05-10T07:40:54.153Z,18.82
2016-05-10T07:41:54.718Z,19.5
2016-05-10T07:42:54.190Z,19.31
2016-05-10T07:44:55.586Z,19.7
2016-05-10T07:45:54.260Z,19.9
2016-05-10T07:47:55.922Z,18.91
2016-05-10T07:48:55.612Z,19.5
2016-05-10T07:49:54.303Z,19.7
2016-05-10T07:50:54.321Z,19.89
2016-05-10T07:51:54.183Z,19.6
2016-05-10T07:52:54.201Z,19.7
2016-05-10T07:53:54.376Z,19.7
2016-05-10T07:54:54.410Z,19.89
2016-05-10T07:55:54.412Z,19.7
2016-05-10T07:56:54.431Z,19.6
2016-05-10T07:57:54.652Z,19.31
2016-05-10T07:58:54.717Z,19.6
2016-05-10T07:59:54.564Z,19.98
2016-05-10T08:00:54.503Z,19.4
2016-05-10T08:01:54.522Z,19.21
2016-05-10T08:02:54.556Z,19.5
2016-05-10T08:03:54.558Z,19.7
2016-05-10T08:04:54.593Z,19.21
2016-05-10T08:05:54.439Z,19.29
2016-05-10T08:06:54.630Z,19.59
2016-05-10T08:07:54.647Z,19.59
2016-05-10T08:08:54.666Z,19.1
2016-05-10T08:09:54.685Z,19.87
2016-05-10T08:10:54.702Z,20.35
2016-05-10T08:11:54.565Z,20.54
2016-05-10T08:12:54.740Z,21.12
2016-05-10T08:13:54.757Z,21.32
2016-05-10T08:14:54.791Z,21.91
2016-05-10T08:15:54.794Z,22
2016-05-10T08:16:54.812Z,21.89
2016-05-10T08:17:54.831Z,21.32
2016-05-10T08:18:54.849Z,20.92
2016-05-10T08:19:54.868Z,21.02
2016-05-10T08:20:54.901Z,20.73
2016-05-10T08:21:54.920Z,21.8
2016-05-10T08:22:54.923Z,21.6
2016-05-10T08:23:55.004Z,21.12
2016-05-10T08:24:54.959Z,21.6
2016-05-10T08:25:54.820Z,21.8
2016-05-10T08:26:54.995Z,21.31
2016-05-10T08:27:55.014Z,21.6
2016-05-10T08:28:55.033Z,21.01
2016-05-10T08:29:56.628Z,21.5
2016-05-10T08:30:55.147Z,21.59
2016-05-10T08:31:54.931Z,21.3
2016-05-10T08:32:56.308Z,22.08
2016-05-10T08:33:54.953Z,22.07
2016-05-10T08:34:55.142Z,22.26
2016-05-10T08:35:55.144Z,22.06
2016-05-10T08:38:55.199Z,23.39
2016-05-10T08:39:55.218Z,23.79
2016-05-10T08:40:55.221Z,23.96
2016-05-10T08:41:55.238Z,24.35
2016-05-10T08:42:55.257Z,24.24
2016-05-10T08:43:55.276Z,24.91
2016-05-10T08:44:55.326Z,25.01
2016-05-10T08:45:55.296Z,25.09
2016-05-10T08:46:55.331Z,25.76
2016-05-10T08:47:55.334Z,26.25
2016-05-10T08:48:55.337Z,26.23
2016-05-10T08:49:55.354Z,26.9
2016-05-10T08:50:55.357Z,27.28
2016-05-10T08:51:55.376Z,27.76
2016-05-10T08:52:55.394Z,28.34
2016-05-10T08:53:55.240Z,28.52
2016-05-10T08:54:55.462Z,28.89
2016-05-10T08:55:56.652Z,29.09
2016-05-10T08:56:55.436Z,29.66
2016-05-10T08:57:56.048Z,29.46
2016-05-10T08:58:55.972Z,29.94
2016-05-10T08:59:55.303Z,30.22
2016-05-10T09:00:56.119Z,30.51
2016-05-10T09:01:55.480Z,30.99
2016-05-10T09:02:55.483Z,31.27
2016-05-10T09:03:56.047Z,31.46
2016-05-10T09:04:56.629Z,31.85
2016-05-10T09:06:56.541Z,31.93
2016-05-10T09:07:56.075Z,32.62
2016-05-10T09:08:55.531Z,32.7
2016-05-10T09:09:55.533Z,32.41
2016-05-10T09:10:55.536Z,32.6
2016-05-10T09:12:02.211Z,32.21
2016-05-10T09:12:56.057Z,32.51
2016-05-10T09:13:55.560Z,32.51
2016-05-10T09:14:56.797Z,32.49
2016-05-10T09:15:55.424Z,32.39
2016-05-10T09:16:55.583Z,32.97
2016-05-10T09:17:55.586Z,32.78
2016-05-10T09:18:55.625Z,32.78
2016-05-10T09:19:55.686Z,32.78
2016-05-10T09:20:55.714Z,32.87
2016-05-10T09:21:55.774Z,32.78
2016-05-10T09:22:55.818Z,32.87
2016-05-10T09:23:56.854Z,33.07
2016-05-10T09:24:55.856Z,33.07
2016-05-10T09:25:55.733Z,33.26
2016-05-10T09:26:55.736Z,33.07
2016-05-10T09:27:55.925Z,33.07
2016-05-10T09:28:55.934Z,33.17
2016-05-10T09:29:56.146Z,33.07
2016-05-10T09:30:55.981Z,33.26
2016-05-10T09:31:55.959Z,32.99
2016-05-10T09:32:55.966Z,32.7
2016-05-10T09:33:55.972Z,32.87
2016-05-10T09:34:55.991Z,32.59
2016-05-10T09:35:55.995Z,32.59
2016-05-10T09:36:56.000Z,32.01
2016-05-10T09:37:56.005Z,32.1
2016-05-10T09:38:56.008Z,32.39
2016-05-10T09:39:56.012Z,32.1
2016-05-10T09:40:56.015Z,32.49
2016-05-10T09:41:56.019Z,32.68
2016-05-10T09:42:56.039Z,32.39
2016-05-10T09:43:56.041Z,32.2
2016-05-10T09:44:56.045Z,32.59
2016-05-10T09:45:56.047Z,32.68
2016-05-10T09:46:56.051Z,32.59
2016-05-10T09:47:56.070Z,32.79
2016-05-10T09:48:56.072Z,32.79
2016-05-10T09:49:56.059Z,32.6
2016-05-10T09:50:55.920Z,32.51
2016-05-10T09:51:56.080Z,32.41
2016-05-10T09:52:56.083Z,32.41
2016-05-10T09:53:56.086Z,32.6
2016-05-10T09:54:56.088Z,32.6
2016-05-10T09:55:56.106Z,32.6
2016-05-10T09:56:56.094Z,32.89
2016-05-10T09:57:56.096Z,32.79
2016-05-10T09:58:56.115Z,32.89
2016-05-10T09:59:56.164Z,32.6
2016-05-10T10:00:56.105Z,33.37
2016-05-10T10:01:56.122Z,33.09
2016-05-10T10:02:56.125Z,33.28
2016-05-10T10:03:55.972Z,33.18
2016-05-10T10:04:56.130Z,32.89
2016-05-10T10:05:56.133Z,32.89
2016-05-10T10:06:55.980Z,32.7
2016-05-10T10:07:56.154Z,33.28
2016-05-10T10:08:56.158Z,33.18
2016-05-10T10:09:56.160Z,33.47
2016-05-10T10:10:56.163Z,33.28
2016-05-10T10:11:56.166Z,33.28
2016-05-10T10:12:56.168Z,33.09
2016-05-10T10:13:56.171Z,33.1
2016-05-10T10:14:56.610Z,32.81
2016-05-10T10:15:56.676Z,32.62
2016-05-10T10:16:56.616Z,32.62
2016-05-10T10:17:56.040Z,32.43
2016-05-10T10:18:56.949Z,32.6
2016-05-10T10:19:56.748Z,32.62
2016-05-10T10:20:56.284Z,32.71
2016-05-10T10:21:56.457Z,32.7
2016-05-10T10:22:56.789Z,32.33
2016-05-10T10:23:57.306Z,32.62
2016-05-10T10:24:56.279Z,32.62
2016-05-10T10:25:57.203Z,32.33
2016-05-10T10:26:57.596Z,32.43
2016-05-10T10:27:56.240Z,32.7
2016-05-10T10:28:56.758Z,31.94
2016-05-10T10:29:56.245Z,31.46
2016-05-10T10:31:10.435Z,30.88
2016-05-10T10:31:57.313Z,30.88
2016-05-10T10:32:56.269Z,30.69
2016-05-10T10:33:56.271Z,30.59
2016-05-10T10:34:56.321Z,30.88
2016-05-10T10:35:56.277Z,30.69
2016-05-10T10:36:56.279Z,30.88
2016-05-10T10:37:56.282Z,31.07
2016-05-10T10:38:56.285Z,31.27
2016-05-10T10:39:56.287Z,31.07
2016-05-10T10:40:56.291Z,30.98
2016-05-10T10:41:56.293Z,31.37
2016-05-10T10:42:56.311Z,31.37
2016-05-10T10:43:56.314Z,31.46
2016-05-10T10:44:56.316Z,31.46
2016-05-10T10:45:56.319Z,30.88
2016-05-10T10:46:56.322Z,30.79
2016-05-10T10:47:56.324Z,30.98
2016-05-10T10:48:56.342Z,31.27
2016-05-10T10:49:56.346Z,30.9
2016-05-10T10:50:56.349Z,30.88
2016-05-10T10:51:56.351Z,31.38
2016-05-10T10:52:56.354Z,31.07
2016-05-10T10:53:56.372Z,30.98
2016-05-10T10:54:56.359Z,30.99
2016-05-10T10:55:56.377Z,30.12
2016-05-10T10:56:56.364Z,30.22
2016-05-10T10:57:56.383Z,30.03
2016-05-10T10:58:56.386Z,29.35
2016-05-10T10:59:56.389Z,28.39
2016-05-10T11:00:56.234Z,28.39
2016-05-10T11:01:56.237Z,28.37
2016-05-10T11:02:56.240Z,28.48
2016-05-10T11:03:56.415Z,28.39
2016-05-10T11:04:56.402Z,27.91
2016-05-10T11:05:56.420Z,27.71
2016-05-10T11:06:56.422Z,27.61
2016-05-10T11:07:56.425Z,27.71
2016-05-10T11:08:56.427Z,27.61
2016-05-10T11:09:56.430Z,27.71
2016-05-10T11:10:56.433Z,27.81
2016-05-10T11:11:56.452Z,27.33
2016-05-10T11:12:56.454Z,27.51
2016-05-10T11:13:56.457Z,27.13
2016-05-10T11:14:56.304Z,27.23
2016-05-10T11:15:56.306Z,27.03
2016-05-10T11:19:56.473Z,25.6
2016-05-10T11:20:56.491Z,25.98
2016-05-10T11:21:56.494Z,25.49
2016-05-10T11:22:56.357Z,25.68
2016-05-10T11:23:56.499Z,25.5
2016-05-10T11:24:56.502Z,25.12
2016-05-10T11:25:56.505Z,24.82
2016-05-10T11:26:56.539Z,25.01
2016-05-10T11:27:56.542Z,24.63
2016-05-10T11:28:56.513Z,24.52
2016-05-10T11:29:56.547Z,24.72
2016-05-10T11:30:56.534Z,24.81
2016-05-10T11:31:56.552Z,24.91
2016-05-10T11:32:56.539Z,25.1
2016-05-10T11:33:57.213Z,25.01
2016-05-10T11:34:57.153Z,24.91
2016-05-10T11:35:56.563Z,25.1
2016-05-10T11:36:57.441Z,24.62
2016-05-10T11:37:56.568Z,24.62
2016-05-10T11:38:56.571Z,24.72
2016-05-10T11:39:56.902Z,24.81
2016-05-10T11:40:57.530Z,24.91
2016-05-10T11:41:57.127Z,24.43
2016-05-10T11:43:56.552Z,24.62
2016-05-10T11:44:57.541Z,24.14
2016-05-10T11:45:57.263Z,23.94
2016-05-10T11:46:57.030Z,24.34
2016-05-10T11:48:56.613Z,24.72
2016-05-10T11:49:57.382Z,24.52
2016-05-10T11:52:57.827Z,24.52
2016-05-10T11:53:56.643Z,24.44
2016-05-10T11:54:56.645Z,24.05
2016-05-10T11:55:56.648Z,23.96
2016-05-10T11:56:56.651Z,24.15
2016-05-10T11:57:56.669Z,24.24
2016-05-10T11:58:56.656Z,24.05
2016-05-10T11:59:56.518Z,23.96
2016-05-10T12:00:56.677Z,24.05
2016-05-10T12:01:56.695Z,24.05
2016-05-10T12:05:56.706Z,23.86
2016-05-10T12:07:56.711Z,23.08
2016-05-10T12:08:56.714Z,22.5
2016-05-10T12:09:56.717Z,22.6
2016-05-10T12:10:56.720Z,22.12
2016-05-10T12:11:56.722Z,21.06
2016-05-10T12:12:56.585Z,21.54
2016-05-10T12:13:56.744Z,21.92
2016-05-10T12:14:56.590Z,22.31
2016-05-10T12:15:56.593Z,22.31
2016-05-10T12:16:56.752Z,22.99
2016-05-10T12:17:56.754Z,23.38
2016-05-10T12:18:56.757Z,23.66
2016-05-10T12:19:56.775Z,24.05
2016-05-10T12:20:56.777Z,24.54
2016-05-10T12:21:56.624Z,24.54
2016-05-10T12:22:56.783Z,24.92
2016-05-10T12:24:23.317Z,24.54
2016-05-10T12:24:56.633Z,24.54
2016-05-10T12:25:56.635Z,24.73
2016-05-10T12:26:56.809Z,24.24
2016-05-10T12:27:56.813Z,24.15
2016-05-10T12:28:56.815Z,24.15
2016-05-10T12:29:57.693Z,23.96
2016-05-10T12:30:56.821Z,24.05
2016-05-10T12:31:56.822Z,24.26
2016-05-10T12:32:56.826Z,24.24
2016-05-10T12:33:56.829Z,24.54
2016-05-10T12:34:56.847Z,24.26
2016-05-10T12:35:56.850Z,24.54
2016-05-10T12:36:56.853Z,24.63
2016-05-10T12:37:56.855Z,24.82
2016-05-10T12:38:56.858Z,24.54
2016-05-10T12:39:56.860Z,24.44
2016-05-10T12:40:56.863Z,24.63
2016-05-10T12:41:56.881Z,24.54
2016-05-10T12:42:56.884Z,24.55
2016-05-10T12:43:56.886Z,24.82
2016-05-10T12:44:57.077Z,24.74
2016-05-10T12:45:56.891Z,24.35
2016-05-10T12:46:56.895Z,24.26
2016-05-10T12:47:56.913Z,24.45
2016-05-10T12:48:56.916Z,24.45
2016-05-10T12:49:56.902Z,24.55
2016-05-10T12:50:56.921Z,24.24
2016-05-10T12:51:57.815Z,24.15
2016-05-10T12:52:58.239Z,24.16
2016-05-10T12:53:57.491Z,23.86
2016-05-10T12:54:56.947Z,24.26
2016-05-10T12:55:56.966Z,24.07
2016-05-10T12:56:56.953Z,24.26
2016-05-10T12:57:57.596Z,24.26
2016-05-10T12:59:11.129Z,23.97
2016-05-10T13:00:57.714Z,24.07
2016-05-10T13:01:56.982Z,23.97
2016-05-10T13:02:57.313Z,24.16
2016-05-10T13:03:57.315Z,24.07
2016-05-10T13:04:56.928Z,23.97
2016-05-10T13:05:57.399Z,23.97
2016-05-10T13:06:56.995Z,24.07
2016-05-10T13:07:57.014Z,23.77
2016-05-10T13:08:57.938Z,23.29
2016-05-10T13:09:58.519Z,23.68
2016-05-10T13:11:57.024Z,23.68
2016-05-10T13:12:57.527Z,23.97
2016-05-10T13:13:57.045Z,23.87
2016-05-10T13:14:57.047Z,24.07
2016-05-10T13:15:57.035Z,24.07
2016-05-10T13:16:57.053Z,24.16
2016-05-10T13:17:56.900Z,23.87
2016-05-10T13:18:57.074Z,23.77
2016-05-10T13:19:57.061Z,23.87
2016-05-10T13:20:57.064Z,23.97